createdAt,value
2019-05-15T00:00:45.106Z,2
2019-05-15T00:05:49.480Z,3
2019-05-15T00:10:50.208Z,3
2019-05-15T00:15:52.632Z,2
2019-05-15T00:20:54.998Z,2
2019-05-15T00:25:58.410Z,2
2019-05-15T00:30:59.874Z,3
2019-05-15T00:36:02.371Z,2
2019-05-15T00:41:04.816Z,2
2019-05-15T00:51:09.950Z,3
2019-05-15T00:56:12.344Z,3
2019-05-15T01:01:14.613Z,3
2019-05-15T01:06:19.022Z,3
2019-05-15T01:11:19.529Z,3
2019-05-15T01:16:22.021Z,3
2019-05-15T01:21:24.575Z,2
2019-05-15T01:26:28.185Z,3
2019-05-15T01:31:29.777Z,3
2019-05-15T01:36:31.842Z,3
2019-05-15T01:41:34.323Z,3
2019-05-15T01:46:39.253Z,3
2019-05-15T01:51:39.344Z,3
2019-05-15T01:56:41.863Z,2
2019-05-15T02:01:44.249Z,3
2019-05-15T02:06:48.208Z,3
2019-05-15T02:11:49.078Z,3
2019-05-15T02:16:51.616Z,2
2019-05-15T02:21:54.042Z,3
2019-05-15T02:26:58.658Z,2
2019-05-15T02:31:59.463Z,2
2019-05-15T02:37:01.426Z,2
2019-05-15T02:42:03.923Z,3
2019-05-15T02:47:09.175Z,2
2019-05-15T02:57:11.184Z,2
2019-05-15T03:02:13.692Z,3
2019-05-15T03:07:18.961Z,3
2019-05-15T03:12:19.527Z,3
2019-05-15T03:17:21.142Z,2
2019-05-15T03:22:23.570Z,3
2019-05-15T03:27:25.976Z,4
2019-05-15T03:32:40.654Z,3
2019-05-15T03:37:33.113Z,3
2019-05-15T03:42:33.326Z,2
2019-05-15T03:47:35.782Z,4
2019-05-15T03:52:39.385Z,3
2019-05-15T03:57:40.964Z,3
2019-05-15T04:02:43.173Z,3
2019-05-15T04:07:45.698Z,3
2019-05-15T04:12:49.213Z,3
2019-05-15T04:17:50.633Z,3
2019-05-15T04:22:53.090Z,2
2019-05-15T04:27:58.676Z,3
2019-05-15T04:32:59.361Z,2
2019-05-15T04:38:00.425Z,3
2019-05-15T04:43:02.942Z,2
2019-05-15T04:48:05.366Z,2
2019-05-15T04:53:10.467Z,2
2019-05-15T04:58:10.734Z,3
2019-05-15T05:03:12.767Z,2
2019-05-15T05:08:15.291Z,2
2019-05-15T05:13:19.728Z,2
2019-05-15T05:18:20.212Z,3
2019-05-15T05:23:22.644Z,2
2019-05-15T05:28:25.089Z,2
2019-05-15T05:33:28.598Z,2
2019-05-15T05:38:30.279Z,2
2019-05-15T05:43:32.483Z,3
2019-05-15T05:48:34.878Z,4
2019-05-15T05:53:38.273Z,2
2019-05-15T05:58:39.844Z,3
2019-05-15T06:03:42.534Z,3
2019-05-15T06:08:44.859Z,3
2019-05-15T06:13:51.753Z,3
2019-05-15T06:18:49.675Z,3
2019-05-15T06:23:55.022Z,3
2019-05-15T06:28:54.649Z,3
2019-05-15T06:33:58.036Z,2
2019-05-15T06:38:59.553Z,3
2019-05-15T06:44:02.036Z,2
2019-05-15T06:49:04.431Z,4
2019-05-15T06:59:09.500Z,3
2019-05-15T07:04:12.196Z,3
2019-05-15T07:09:14.212Z,2
2019-05-15T07:14:18.064Z,3
2019-05-15T07:19:19.325Z,4
2019-05-15T07:24:21.702Z,3
2019-05-15T07:29:24.103Z,3
2019-05-15T07:34:28.301Z,2
2019-05-15T07:39:29.038Z,3
2019-05-15T07:44:31.538Z,3
2019-05-15T07:49:33.957Z,3
2019-05-15T07:54:38.286Z,2
2019-05-15T07:59:38.837Z,2
2019-05-15T08:04:41.369Z,2
2019-05-15T08:09:43.895Z,2
2019-05-15T08:14:48.141Z,2
2019-05-15T08:19:48.781Z,2
2019-05-15T08:24:51.337Z,2
2019-05-15T08:29:53.619Z,3
2019-05-15T08:34:56.036Z,2
2019-05-15T08:45:01.099Z,2
2019-05-15T08:50:03.379Z,2
2019-05-15T08:55:08.330Z,2
2019-05-15T09:00:09.619Z,2
2019-05-15T09:05:10.896Z,2
2019-05-15T09:10:18.338Z,2
2019-05-15T09:15:18.286Z,2
2019-05-15T09:20:19.379Z,2
2019-05-15T09:25:20.606Z,3
2019-05-15T09:30:23.258Z,2
2019-05-15T09:35:27.698Z,2
2019-05-15T09:40:43.043Z,3
2019-05-15T09:45:30.482Z,2
2019-05-15T09:50:33.116Z,2
2019-05-15T09:55:38.123Z,2
2019-05-15T10:00:38.539Z,2
2019-05-15T10:05:40.445Z,2
2019-05-15T10:10:48.706Z,2
2019-05-15T10:15:48.253Z,3
2019-05-15T10:20:47.761Z,2
2019-05-15T10:25:50.057Z,2
2019-05-15T10:30:52.524Z,3
2019-05-15T10:35:54.976Z,3
2019-05-15T10:41:08.380Z,2
2019-05-15T10:46:00.202Z,2
2019-05-15T10:51:07.024Z,2
2019-05-15T10:56:04.858Z,3
2019-05-15T11:01:10.947Z,3
2019-05-15T11:06:09.776Z,4
2019-05-15T11:11:12.187Z,2
2019-05-15T11:16:14.875Z,3
2019-05-15T11:21:18.961Z,3
2019-05-15T11:26:19.653Z,3
2019-05-15T11:31:24.746Z,3
2019-05-15T11:36:24.595Z,3
2019-05-15T11:41:30.747Z,3
2019-05-15T11:46:29.474Z,5
2019-05-15T11:51:31.864Z,2
2019-05-15T11:56:34.344Z,3
2019-05-15T12:01:38.242Z,2
2019-05-15T12:06:39.199Z,3
2019-05-15T12:11:41.697Z,3
2019-05-15T12:17:00.862Z,2
2019-05-15T12:21:48.812Z,2
2019-05-15T12:26:49.105Z,3
2019-05-15T12:31:51.555Z,3
2019-05-15T12:36:57.861Z,3
2019-05-15T14:02:39.680Z,4
2019-05-15T14:07:48.547Z,3
2019-05-15T14:12:41.312Z,3
2019-05-15T14:17:43.092Z,4
2019-05-15T14:22:47.885Z,4
2019-05-15T14:27:48.587Z,5
2019-05-15T14:32:50.526Z,4
2019-05-15T14:38:03.359Z,4
2019-05-15T14:42:55.514Z,4
2019-05-15T14:47:58.220Z,4
2019-05-15T14:53:00.428Z,3
2019-05-15T14:58:02.765Z,4
2019-05-15T15:03:05.274Z,4
2019-05-15T15:08:18.198Z,4
2019-05-15T15:13:10.147Z,5
2019-05-15T15:18:12.794Z,4
2019-05-15T15:23:15.169Z,5
2019-05-15T15:28:18.819Z,5
2019-05-15T15:33:20.172Z,4
2019-05-15T15:38:37.351Z,5
2019-05-15T15:43:25.064Z,5
2019-05-15T15:48:28.689Z,6
2019-05-15T15:53:29.805Z,5
2019-05-15T15:58:32.310Z,4
2019-05-15T16:03:34.802Z,4
2019-05-15T16:08:51.044Z,5
2019-05-15T16:13:39.934Z,4
2019-05-15T16:23:44.579Z,5
2019-05-15T16:28:48.900Z,4
2019-05-15T16:33:49.497Z,4
2019-05-15T16:39:03.872Z,4
2019-05-15T16:43:54.451Z,4
2019-05-15T16:48:58.335Z,5
2019-05-15T16:53:59.338Z,5
2019-05-15T16:59:01.869Z,5
2019-05-15T17:04:04.285Z,4
2019-05-15T17:09:18.237Z,4
2019-05-15T17:14:09.214Z,5
2019-05-15T17:19:11.631Z,4
2019-05-15T17:24:14.174Z,5
2019-05-15T17:29:18.483Z,5
2019-05-15T17:34:18.977Z,5
2019-05-15T17:39:33.606Z,5
2019-05-15T17:44:23.962Z,5
2019-05-15T17:49:28.005Z,6
2019-05-15T17:54:28.900Z,6
2019-05-15T17:59:31.355Z,7
2019-05-15T18:04:33.789Z,5
2019-05-15T18:09:48.232Z,6
2019-05-15T18:14:38.755Z,4
2019-05-15T18:19:41.164Z,5
2019-05-15T18:24:45.310Z,6
2019-05-15T18:29:48.017Z,6
2019-05-15T18:34:48.861Z,6
2019-05-15T18:40:01.127Z,6
2019-05-15T18:44:53.817Z,7
2019-05-15T18:50:04.908Z,6
2019-05-15T18:54:58.824Z,5
2019-05-15T19:00:01.112Z,6
2019-05-15T19:05:03.484Z,6
2019-05-15T19:10:07.761Z,7
2019-05-15T19:15:09.164Z,5
2019-05-15T19:20:10.606Z,6
2019-05-15T19:25:13.815Z,6
2019-05-15T19:30:15.626Z,5
2019-05-15T19:35:18.486Z,6
2019-05-15T19:40:20.519Z,6
2019-05-15T19:45:23.019Z,6
2019-05-15T19:50:25.473Z,6
2019-05-15T19:55:27.825Z,10
2019-05-15T20:00:30.267Z,4
2019-05-15T20:05:32.691Z,7
2019-05-15T20:15:38.009Z,10
2019-05-15T20:20:40.139Z,9
2019-05-15T20:25:42.580Z,5
2019-05-15T20:30:44.982Z,6
2019-05-15T20:35:47.956Z,6
2019-05-15T20:40:49.968Z,6
2019-05-15T20:45:52.363Z,6
2019-05-15T20:50:54.873Z,7
2019-05-15T20:55:58.836Z,6
2019-05-15T21:00:59.741Z,7
2019-05-15T21:06:02.186Z,6
2019-05-15T21:11:04.647Z,7
2019-05-15T21:21:10.400Z,10
2019-05-15T21:26:12.058Z,11
2019-05-15T21:31:14.473Z,8
2019-05-15T21:36:19.239Z,10
2019-05-15T21:41:19.386Z,7
2019-05-15T21:46:21.947Z,6
2019-05-15T21:51:24.320Z,5
2019-05-15T21:56:27.948Z,5
2019-05-15T22:01:29.422Z,5
2019-05-15T22:06:31.647Z,5
2019-05-15T22:11:34.214Z,6
2019-05-15T22:16:36.735Z,5
2019-05-15T22:21:40.672Z,5
2019-05-15T22:26:41.524Z,5
2019-05-15T22:31:44.034Z,6
2019-05-15T22:36:48.801Z,7
2019-05-15T22:41:48.927Z,5
2019-05-15T22:46:51.332Z,5
2019-05-15T22:51:53.770Z,5
2019-05-15T22:56:57.650Z,5
2019-05-15T23:01:58.694Z,6
2019-05-15T23:07:01.173Z,6
2019-05-15T23:12:03.683Z,6
2019-05-15T23:17:08.125Z,7
2019-05-15T23:22:08.641Z,6
2019-05-15T23:27:11.012Z,6
2019-05-15T23:32:13.540Z,7
2019-05-15T23:37:15.909Z,7
2019-05-15T23:42:18.616Z,7
2019-05-15T23:47:20.826Z,6
2019-05-15T23:52:23.299Z,5
2019-05-15T23:57:28.495Z,5
